Benchley, Texas
Current Conditions -  °F | °C
As of 9:53 PM on Tuesday 21 Oct 2014 (Local Time) from KCLL Reporting Station
Clear Clear  
Wind Chill: 69°   Ceiling: Unl
Heat Index: 69°   Visibility: 10mi
Dew Point: 59°   Wind: 5mph
Humidity: 70%   Direction: 70°ENE
Pressure: 30.05"   Gusts: NA
Location:  30.6361°N, 96.3666°W
Report Text: KCLL 220253Z 07004KT 10SM CLR 21/15 A3005 RMK AO2 SLP173 T02060150 52017
Loading
Personal Weather Stations






























Interactive Weather Map
Tropical Storm Tracking
New forecast layout! Learn more

10-Day Weather Forecast

Advertisements
Track Severe Weather on mobile